Time;durP1;ratioP1;P1;durP2;ratioP2;P2;SDS_P1;SDS_P2;PMS_P1;PMS_P2;Temp;Humidity;BMP_temperature;BMP_pressure;BME280_temperature;BME280_humidity;BME280_pressure;Samples;Min_cycle;Max_cycle;Signal;HPM_P1;HPM_P2
2022/01/24 00:01:46;;;;;;;5.65;2.45;;;;;;;25.83;29.15;98085.09;4900980;29;20111;-64
2022/01/24 00:04:11;;;;;;;3.95;2.13;;;;;;;25.83;29.13;98085.09;4893425;29;20112;-64
2022/01/24 00:06:37;;;;;;;5.40;2.42;;;;;;;25.82;29.27;98078.16;4899962;29;20221;-64
2022/01/24 00:09:04;;;;;;;5.47;2.10;;;;;;;25.86;29.08;98072.81;4900643;29;20042;-64
2022/01/24 00:11:41;;;;;;;4.63;2.33;;;;;;;25.86;29.12;98073.66;4898274;29;20035;-64
2022/01/24 00:17:02;;;;;;;5.57;2.40;;;;;;;25.87;29.12;98064.88;4899898;29;20066;-64
2022/01/24 00:27:39;;;;;;;4.00;2.35;;;;;;;25.85;29.11;98044.84;4900933;29;20042;-64
2022/01/24 00:30:05;;;;;;;3.60;2.15;;;;;;;25.86;29.16;98036.03;4914280;29;20040;-64
2022/01/24 00:32:31;;;;;;;3.67;2.00;;;;;;;25.86;29.16;98025.53;4918433;29;20040;-62
2022/01/24 00:34:56;;;;;;;3.95;2.13;;;;;;;25.85;29.11;98035.16;4900110;29;20059;-62
2022/01/24 00:37:22;;;;;;;5.05;2.40;;;;;;;25.86;29.01;98030.78;4914390;29;20783;-64
2022/01/24 00:39:47;;;;;;;4.32;2.10;;;;;;;25.86;29.26;98033.41;4901891;29;21111;-63
2022/01/24 00:42:39;;;;;;;3.25;2.00;;;;;;;25.84;29.18;98028.19;4900833;29;20467;-61
2022/01/24 00:47:47;;;;;;;5.13;2.40;;;;;;;25.86;29.19;98041.28;4896954;29;20072;-64
2022/01/24 00:55:41;;;;;;;4.45;2.10;;;;;;;25.85;28.91;98039.56;4898929;29;20059;-63
2022/01/24 00:58:06;;;;;;;4.53;2.15;;;;;;;25.85;29.19;98029.06;4898394;29;20494;-64
2022/01/24 01:00:32;;;;;;;5.38;1.83;;;;;;;25.85;29.04;98029.06;4902291;29;20714;-64
2022/01/24 01:02:57;;;;;;;5.22;2.00;;;;;;;25.85;29.26;98029.06;4899915;29;20032;-64
2022/01/24 01:05:38;;;;;;;3.60;1.92;;;;;;;25.86;29.19;98033.41;4898820;29;20038;-61
2022/01/24 01:18:47;;;;;;;3.97;2.00;;;;;;;25.84;29.19;98020.31;4905966;29;20098;-64
2022/01/24 01:21:15;;;;;;;3.45;2.08;;;;;;;25.82;28.98;98023.00;4899449;29;20736;-63
2022/01/24 01:23:48;;;;;;;4.45;1.98;;;;;;;25.83;29.23;98031.75;4900707;29;20528;-63
2022/01/24 01:26:33;;;;;;;2.75;1.70;;;;;;;25.80;29.14;98027.47;4904597;29;20102;-63
2022/01/24 01:29:24;;;;;;;4.22;1.88;;;;;;;25.82;29.04;98036.13;4899837;29;20032;-65
2022/01/24 01:31:55;;;;;;;3.08;1.90;;;;;;;25.82;29.13;98036.13;4899922;29;20047;-63
2022/01/24 01:55:43;;;;;;;4.72;1.63;;;;;;;25.80;29.01;98042.34;4899222;29;20031;-64
2022/01/24 01:58:12;;;;;;;2.95;1.40;;;;;;;25.78;28.99;98039.75;4901562;29;20039;-63
2022/01/24 02:00:45;;;;;;;2.63;1.63;;;;;;;25.78;29.05;98037.13;4899494;29;20051;-64
2022/01/24 02:03:11;;;;;;;3.05;1.70;;;;;;;25.78;28.99;98042.38;4896458;28;20050;-64
2022/01/24 02:05:37;;;;;;;3.95;1.88;;;;;;;25.79;29.00;98035.38;4897264;29;20034;-63
2022/01/24 02:08:03;;;;;;;2.58;1.63;;;;;;;25.77;29.00;98045.94;4899152;29;20028;-64
2022/01/24 02:10:28;;;;;;;2.92;1.50;;;;;;;25.79;29.10;98052.00;4898966;29;21113;-64
2022/01/24 02:12:55;;;;;;;4.88;1.73;;;;;;;25.77;29.13;98038.06;4897222;29;20039;-64
2022/01/24 02:16:13;;;;;;;3.42;1.50;;;;;;;25.76;29.12;98036.34;4899507;29;20035;-64
2022/01/24 02:26:00;;;;;;;3.17;1.70;;;;;;;25.78;28.94;98046.81;4915128;29;20108;-64
2022/01/24 02:28:29;;;;;;;3.40;1.52;;;;;;;25.77;29.06;98042.44;4899716;29;21297;-63
2022/01/24 02:33:39;;;;;;;3.33;1.60;;;;;;;25.74;29.20;98042.56;4898857;29;20038;-63
2022/01/24 02:36:04;;;;;;;4.22;1.52;;;;;;;25.77;29.04;98043.31;4900403;29;20031;-64
2022/01/24 02:49:34;;;;;;;4.88;1.55;;;;;;;25.74;29.01;98032.91;4881024;29;20038;-62
2022/01/24 02:52:03;;;;;;;1.92;1.27;;;;;;;25.73;29.04;98031.19;4895739;29;20036;-65
2022/01/24 02:54:31;;;;;;;2.33;1.60;;;;;;;25.74;29.10;98032.91;4883900;29;21037;-63
2022/01/24 02:56:57;;;;;;;2.28;1.60;;;;;;;25.73;28.97;98036.44;4881419;29;20038;-65
2022/01/24 02:59:22;;;;;;;2.03;1.33;;;;;;;25.73;28.96;98036.44;4887846;29;20044;-66
2022/01/24 03:01:48;;;;;;;3.38;1.63;;;;;;;25.73;29.11;98033.81;4915935;29;20062;-63
2022/01/24 03:04:13;;;;;;;1.70;1.23;;;;;;;25.72;28.91;98029.47;4905329;29;20092;-64
2022/01/24 03:06:39;;;;;;;3.03;1.35;;;;;;;25.73;28.91;98031.19;4901869;29;20028;-64
2022/01/24 03:09:05;;;;;;;4.07;1.80;;;;;;;25.73;28.96;98023.31;4900187;29;20035;-63
2022/01/24 03:11:53;;;;;;;2.20;1.30;;;;;;;25.73;28.93;98020.69;4899165;29;20028;-63
2022/01/24 03:14:20;;;;;;;2.20;1.33;;;;;;;25.72;28.93;98013.72;4898637;29;20035;-62
2022/01/24 03:16:46;;;;;;;2.53;1.40;;;;;;;25.70;29.10;98010.28;4896462;29;20032;-63
2022/01/24 03:19:12;;;;;;;2.25;1.30;;;;;;;25.71;28.99;98006.78;4898487;29;20873;-63
2022/01/24 03:21:37;;;;;;;2.15;1.50;;;;;;;25.71;29.11;98006.78;4898193;29;20130;-63
2022/01/24 03:24:03;;;;;;;1.38;1.20;;;;;;;25.70;28.90;98005.03;4897399;29;20040;-63
2022/01/24 03:26:28;;;;;;;2.10;1.25;;;;;;;25.70;29.05;98005.03;4913559;29;20032;-63
2022/01/24 03:28:54;;;;;;;2.08;1.25;;;;;;;25.70;29.04;98005.03;4902408;29;20047;-63
2022/01/24 03:31:19;;;;;;;2.45;1.15;;;;;;;25.70;28.94;98007.66;4897808;29;20031;-63
2022/01/24 03:33:44;;;;;;;1.77;1.30;;;;;;;25.71;28.93;98004.16;4900034;29;20093;-62
2022/01/24 03:36:10;;;;;;;3.50;1.70;;;;;;;25.68;28.94;97991.97;4898999;29;20866;-62
2022/01/24 03:38:35;;;;;;;3.63;1.50;;;;;;;25.70;28.94;97999.78;4900471;29;20040;-64
2022/01/24 03:41:01;;;;;;;1.50;1.30;;;;;;;25.70;29.00;97992.78;4899874;29;20049;-64
2022/01/24 03:43:26;;;;;;;1.27;1.17;;;;;;;25.70;28.95;97994.53;4899976;29;20039;-63
2022/01/24 03:48:45;;;;;;;5.40;1.40;;;;;;;25.68;28.97;97996.34;4901865;29;20047;-63
2022/01/24 03:51:11;;;;;;;2.28;1.33;;;;;;;25.68;28.99;97999.84;4900607;29;20791;-63
2022/01/24 03:53:37;;;;;;;3.00;1.35;;;;;;;25.67;29.15;97989.41;4904197;29;20044;-63
2022/01/24 03:56:03;;;;;;;2.38;1.55;;;;;;;25.67;29.02;97999.91;4915921;29;20035;-63
2022/01/24 03:58:28;;;;;;;2.30;1.38;;;;;;;25.67;28.90;97994.66;4902029;29;20036;-63
2022/01/24 04:00:55;;;;;;;1.27;1.10;;;;;;;25.68;28.92;97991.09;4918053;29;20042;-63
2022/01/24 04:03:21;;;;;;;2.90;1.35;;;;;;;25.66;28.97;97993.78;4902297;29;20032;-60
2022/01/24 04:05:46;;;;;;;1.40;1.02;;;;;;;25.66;28.90;97987.69;4913883;29;21345;-64
2022/01/24 04:08:12;;;;;;;1.77;1.30;;;;;;;25.66;28.98;97988.53;4905197;29;20628;-62
2022/01/24 04:10:57;;;;;;;2.13;1.13;;;;;;;25.67;28.86;97989.41;4902691;29;20649;-63
2022/01/24 04:13:30;;;;;;;1.95;1.23;;;;;;;25.65;28.84;97985.94;4901923;29;20043;-63
2022/01/24 04:23:48;;;;;;;2.15;1.20;;;;;;;25.63;28.97;97980.75;4900631;29;20185;-64
2022/01/24 04:26:13;;;;;;;1.27;1.00;;;;;;;25.64;29.00;97984.25;4896698;29;20035;-64
2022/01/24 04:28:39;;;;;;;1.67;1.38;;;;;;;25.63;28.91;97982.53;4902889;29;20040;-62
2022/01/24 04:31:04;;;;;;;1.48;1.20;;;;;;;25.63;28.83;97988.63;4898951;29;20032;-63
2022/01/24 04:33:30;;;;;;;1.65;1.17;;;;;;;25.61;28.78;97989.59;4899691;29;20027;-64
2022/01/24 04:35:55;;;;;;;2.08;1.20;;;;;;;25.62;28.90;97986.91;4898099;29;20028;-63
2022/01/24 04:38:20;;;;;;;1.73;0.95;;;;;;;25.60;28.97;97987.88;4901428;29;20032;-61
2022/01/24 04:40:46;;;;;;;1.42;1.15;;;;;;;25.62;29.00;97991.31;4898864;28;20046;-63
2022/01/24 04:43:50;;;;;;;1.08;0.98;;;;;;;25.60;28.91;97995.75;4898073;29;20024;-64
2022/01/24 04:46:09;;;;;;;1.42;1.10;;;;;;;25.61;28.89;97994.84;4898626;29;20103;-61
2022/01/24 04:54:27;;;;;;;1.33;1.23;;;;;;;25.59;28.96;97983.53;4899612;29;20074;-63
2022/01/24 04:56:48;;;;;;;1.58;1.20;;;;;;;25.60;28.87;98001.00;4904946;29;20119;-64
2022/01/24 04:59:14;;;;;;;1.20;1.10;;;;;;;25.57;28.99;97997.59;4899769;29;20700;-63
2022/01/24 05:01:39;;;;;;;1.80;1.10;;;;;;;25.56;28.93;97987.97;4902481;29;20671;-63
2022/01/24 05:04:04;;;;;;;1.15;0.98;;;;;;;25.59;28.84;97996.66;4901812;29;21081;-63
2022/01/24 05:06:30;;;;;;;1.63;0.82;;;;;;;25.56;28.86;97987.97;4899154;29;20095;-64
2022/01/24 05:08:55;;;;;;;1.60;1.15;;;;;;;25.56;28.93;97993.22;4901737;29;20023;-62
2022/01/24 05:11:33;;;;;;;1.65;1.13;;;;;;;25.57;28.85;98000.22;4899083;28;21157;-62
2022/01/24 05:24:38;;;;;;;1.40;1.20;;;;;;;25.55;28.97;98007.22;4900213;29;20261;-63
2022/01/24 05:27:04;;;;;;;0.70;0.70;;;;;;;25.54;28.94;98004.66;4917167;29;20064;-61
2022/01/24 05:29:30;;;;;;;1.48;0.93;;;;;;;25.54;28.52;98010.75;4901716;29;20038;-64
2022/01/24 05:31:55;;;;;;;1.35;0.90;;;;;;;25.55;28.69;98022.97;4898993;29;20708;-64
2022/01/24 05:34:22;;;;;;;1.33;1.05;;;;;;;25.54;28.84;98015.16;4895651;29;20122;-62
2022/01/24 05:36:47;;;;;;;2.28;1.10;;;;;;;25.54;28.82;98021.28;4897135;29;20028;-63
2022/01/24 05:39:12;;;;;;;1.40;0.98;;;;;;;25.54;28.83;98029.16;4898946;29;20379;-63
2022/01/24 05:41:38;;;;;;;1.55;1.02;;;;;;;25.51;28.77;98016.09;4897794;29;20028;-63
2022/01/24 05:44:05;;;;;;;1.00;0.90;;;;;;;25.53;28.88;98019.56;4898973;29;20119;-63
2022/01/24 05:46:31;;;;;;;1.73;1.20;;;;;;;25.54;28.87;98020.41;4894320;29;20048;-63
2022/01/24 05:48:56;;;;;;;1.10;1.00;;;;;;;25.53;28.80;98014.31;4899193;29;20087;-65
2022/01/24 05:51:21;;;;;;;1.08;0.98;;;;;;;25.53;28.71;98019.56;4900413;29;20051;-63
2022/01/24 05:53:47;;;;;;;1.75;1.08;;;;;;;25.52;28.95;98020.44;4901452;29;20031;-63
2022/01/24 05:56:12;;;;;;;1.38;1.00;;;;;;;25.51;28.79;98023.97;4901372;28;20043;-64
2022/01/24 05:58:38;;;;;;;1.48;1.00;;;;;;;25.52;28.74;98023.06;4899290;29;20036;-62
2022/01/24 06:01:03;;;;;;;1.58;1.13;;;;;;;25.51;28.78;98026.59;4898704;29;20035;-63
2022/01/24 06:03:29;;;;;;;1.92;1.30;;;;;;;25.52;28.89;98028.31;4896927;29;20028;-62
2022/01/24 06:05:54;;;;;;;2.95;1.60;;;;;;;25.50;28.58;98024.91;4900705;29;20032;-63
2022/01/24 06:08:20;;;;;;;2.25;1.45;;;;;;;25.50;28.77;98024.91;4896339;29;20043;-61
2022/01/24 06:10:47;;;;;;;1.27;0.90;;;;;;;25.48;28.50;98031.97;4896458;29;20027;-63
2022/01/24 06:13:12;;;;;;;2.08;1.05;;;;;;;25.49;28.54;98028.44;4914381;29;20054;-62
2022/01/24 06:15:38;;;;;;;3.00;1.00;;;;;;;25.48;28.85;98037.22;4911743;28;20036;-63
2022/01/24 06:18:03;;;;;;;3.08;1.08;;;;;;;25.49;28.68;98030.19;4899014;29;20032;-62
2022/01/24 06:20:28;;;;;;;1.17;0.95;;;;;;;25.48;28.75;98037.22;4900292;29;20569;-63
2022/01/24 06:22:54;;;;;;;5.40;1.10;;;;;;;25.48;28.88;98036.34;4914711;29;20081;-62
2022/01/24 06:25:23;;;;;;;4.63;0.93;;;;;;;25.48;28.85;98041.59;4898165;29;20028;-61
2022/01/24 06:27:48;;;;;;;2.17;0.93;;;;;;;25.45;28.74;98038.16;4901989;29;20047;-61
2022/01/24 06:30:13;;;;;;;1.23;1.00;;;;;;;25.49;28.83;98031.06;4901665;29;20047;-63
2022/01/24 06:32:39;;;;;;;1.83;0.90;;;;;;;25.48;28.86;98034.59;4900938;29;20047;-62
2022/01/24 06:35:05;;;;;;;2.58;0.95;;;;;;;25.48;28.79;98031.97;4899368;29;20498;-63
2022/01/24 06:37:30;;;;;;;1.13;0.85;;;;;;;25.49;28.80;98033.69;4917521;29;20095;-64
2022/01/24 06:39:56;;;;;;;1.27;0.90;;;;;;;25.50;28.85;98029.28;4902549;29;20602;-62
2022/01/24 06:42:23;;;;;;;1.02;0.93;;;;;;;25.50;28.69;98032.78;4904104;29;20620;-63
2022/01/24 06:44:52;;;;;;;1.80;1.00;;;;;;;25.51;28.74;98046.75;4897204;29;20036;-61
2022/01/24 06:47:18;;;;;;;1.33;1.00;;;;;;;25.50;28.84;98050.28;4896596;29;20031;-62
2022/01/24 06:49:43;;;;;;;5.70;1.23;;;;;;;25.49;28.84;98036.31;4897529;29;20040;-62
2022/01/24 06:52:09;;;;;;;1.30;1.00;;;;;;;25.51;28.68;98039.72;4899656;29;20478;-63
2022/01/24 06:54:35;;;;;;;1.27;0.90;;;;;;;25.52;28.81;98054.56;4903264;29;20039;-63
2022/01/24 06:57:00;;;;;;;4.00;0.90;;;;;;;25.51;28.73;98052.84;4904469;29;20020;-62
2022/01/24 06:59:26;;;;;;;1.33;1.10;;;;;;;25.51;28.82;98052.84;4898384;28;20042;-59
2022/01/24 07:01:52;;;;;;;1.10;1.00;;;;;;;25.53;28.78;98058.06;4900703;29;20542;-61
2022/01/24 07:04:18;;;;;;;3.38;0.90;;;;;;;25.52;28.65;98059.81;4915861;29;20483;-61
2022/01/24 07:06:43;;;;;;;1.77;1.02;;;;;;;25.53;28.66;98061.56;4902458;29;20148;-61
2022/01/24 07:09:09;;;;;;;1.00;0.80;;;;;;;25.53;28.53;98061.56;4903519;29;20844;-60
2022/01/24 07:11:34;;;;;;;1.20;0.70;;;;;;;25.54;28.67;98063.25;4900456;29;20043;-61
2022/01/24 07:14:00;;;;;;;1.40;0.90;;;;;;;25.55;28.85;98070.22;4898587;29;20035;-60
2022/01/24 07:16:36;;;;;;;1.13;1.00;;;;;;;25.56;28.70;98068.50;4902498;29;20050;-60
2022/01/24 07:19:03;;;;;;;3.45;1.20;;;;;;;25.55;28.77;98069.38;4900400;29;20992;-59
2022/01/24 07:21:29;;;;;;;4.28;1.00;;;;;;;25.54;28.69;98063.25;4899783;29;20094;-60
2022/01/24 07:23:55;;;;;;;2.45;1.30;;;;;;;25.55;28.72;98070.22;4902986;29;20031;-60
2022/01/24 07:26:20;;;;;;;5.07;1.80;;;;;;;25.55;28.67;98072.00;4900592;29;20325;-61
2022/01/24 07:28:45;;;;;;;5.05;2.03;;;;;;;25.55;28.68;98079.88;4902186;28;20311;-60
2022/01/24 07:31:11;;;;;;;10.40;2.28;;;;;;;25.53;28.75;98076.44;4904086;29;20860;-60
2022/01/24 07:33:37;;;;;;;5.65;2.20;;;;;;;25.52;28.62;98083.44;4911578;28;20729;-60
2022/01/24 07:36:02;;;;;;;6.22;2.38;;;;;;;25.52;28.79;98086.06;4897603;29;20038;-60
2022/01/24 07:38:29;;;;;;;10.25;2.45;;;;;;;25.53;28.68;98089.56;4912874;29;20814;-60
2022/01/24 07:40:55;;;;;;;5.55;2.13;;;;;;;25.52;28.76;98091.31;4896724;28;20032;-59
2022/01/24 07:43:21;;;;;;;4.55;1.90;;;;;;;25.54;28.69;98089.50;4896646;29;20031;-59
2022/01/24 07:45:46;;;;;;;5.05;2.00;;;;;;;25.54;28.73;98088.63;4898877;29;20051;-60
2022/01/24 07:48:13;;;;;;;6.20;2.00;;;;;;;25.54;28.84;98083.38;4914736;29;20027;-60
2022/01/24 07:50:40;;;;;;;4.38;2.20;;;;;;;25.54;28.92;98083.38;4904111;29;20047;-61
2022/01/24 07:53:07;;;;;;;5.22;2.28;;;;;;;25.55;28.90;98090.38;4903093;29;20048;-61
2022/01/24 07:55:33;;;;;;;10.43;2.28;;;;;;;25.55;29.04;98085.97;4906709;29;20106;-62
2022/01/24 07:57:58;;;;;;;3.22;2.03;;;;;;;25.55;29.08;98096.47;4904144;29;20031;-62
2022/01/24 08:00:24;;;;;;;6.30;2.35;;;;;;;25.57;28.97;98099.09;4901139;29;20039;-62
2022/01/24 08:02:49;;;;;;;4.85;2.25;;;;;;;25.58;29.08;98095.53;4906293;29;20035;-62
2022/01/24 08:05:15;;;;;;;5.00;2.17;;;;;;;25.57;29.04;98099.94;4903204;29;20035;-63
2022/01/24 08:07:40;;;;;;;6.78;2.53;;;;;;;25.56;29.24;98098.22;4907201;29;20847;-63
2022/01/24 08:10:06;;;;;;;6.63;2.50;;;;;;;25.60;29.11;98108.63;4919438;28;20039;-61
2022/01/24 08:12:33;;;;;;;6.32;2.65;;;;;;;25.60;29.24;98112.13;4903657;29;20062;-62
2022/01/24 08:15:02;;;;;;;6.78;2.40;;;;;;;25.61;29.35;98097.22;4906225;29;20743;-65
2022/01/24 08:17:28;;;;;;;6.80;2.15;;;;;;;25.62;29.12;98104.19;4905010;29;20050;-63
2022/01/24 08:19:53;;;;;;;6.75;2.58;;;;;;;25.63;29.28;98103.28;4905427;29;20031;-61
2022/01/24 08:22:19;;;;;;;8.70;2.60;;;;;;;25.63;29.32;98108.53;4919102;29;20137;-63
2022/01/24 08:24:45;;;;;;;7.85;2.35;;;;;;;25.64;29.37;98110.25;4900301;29;20035;-63
2022/01/24 08:27:11;;;;;;;5.20;2.47;;;;;;;25.64;29.19;98119.00;4897535;29;20036;-63
2022/01/24 08:29:37;;;;;;;8.30;2.78;;;;;;;25.65;29.21;98117.22;4903207;29;20123;-62
2022/01/24 08:32:03;;;;;;;5.55;3.08;;;;;;;25.65;28.96;98111.97;4916468;29;20137;-61
2022/01/24 08:34:28;;;;;;;4.65;2.50;;;;;;;25.65;29.18;98111.97;4903257;29;20515;-62
2022/01/24 08:36:53;;;;;;;8.70;2.75;;;;;;;25.65;29.37;98106.72;4917797;29;20857;-63
2022/01/24 08:39:19;;;;;;;8.35;2.75;;;;;;;25.66;29.27;98106.66;4903511;29;20032;-62
2022/01/24 08:42:35;;;;;;;5.55;2.70;;;;;;;25.65;29.22;98102.31;4899887;29;20102;-62
2022/01/24 08:47:14;;;;;;;6.05;2.47;;;;;;;25.67;29.25;98100.50;4903322;29;20740;-61
2022/01/24 08:49:40;;;;;;;6.55;2.95;;;;;;;25.68;29.19;98090.88;4919230;29;20032;-63
2022/01/24 08:52:05;;;;;;;5.63;2.45;;;;;;;25.67;29.38;98095.25;4918398;29;20031;-63
2022/01/24 08:54:31;;;;;;;6.97;2.50;;;;;;;25.69;29.37;98095.22;4902507;29;20040;-64
2022/01/24 08:56:57;;;;;;;4.47;2.40;;;;;;;25.68;29.29;98102.25;4900414;29;20044;-63
2022/01/24 08:59:22;;;;;;;5.82;2.20;;;;;;;25.71;29.45;98098.66;4900377;29;20036;-63
2022/01/24 09:01:48;;;;;;;5.25;3.00;;;;;;;25.72;29.35;98097.75;4904530;29;20095;-65
2022/01/24 09:04:13;;;;;;;11.63;7.40;;;;;;;25.67;26.13;98099.66;4917984;28;20133;-65
2022/01/24 09:06:39;;;;;;;30.40;8.50;;;;;;;25.50;22.74;98103.63;4904766;28;20028;-69
2022/01/24 09:09:05;;;;;;;16.55;8.98;;;;;;;25.25;20.89;98099.13;4899287;29;20665;-62
2022/01/24 09:11:34;;;;;;;10.68;7.47;;;;;;;24.98;21.74;98096.41;4898811;29;20642;-62
2022/01/24 09:14:00;;;;;;;11.25;6.45;;;;;;;24.79;22.57;98094.28;4901221;28;20603;-62
2022/01/24 09:16:26;;;;;;;7.18;5.93;;;;;;;24.70;23.60;98097.19;4903183;29;20036;-59
2022/01/24 09:18:52;;;;;;;13.55;5.40;;;;;;;24.67;24.04;98105.13;4901061;29;20036;-62
2022/01/24 09:21:17;;;;;;;8.10;4.85;;;;;;;24.65;24.74;98096.47;4897167;29;20123;-62
2022/01/24 09:23:42;;;;;;;16.02;4.47;;;;;;;24.66;24.88;98090.31;4914024;29;20056;-61
2022/01/24 09:26:08;;;;;;;12.75;4.53;;;;;;;24.71;25.39;98090.19;4902091;29;20789;-61
2022/01/24 09:28:33;;;;;;;9.05;4.40;;;;;;;24.75;25.44;98097.91;4899540;29;20751;-61
2022/01/24 09:30:59;;;;;;;6.65;4.13;;;;;;;24.79;25.63;98096.91;4892264;29;20032;-62
2022/01/24 09:33:26;;;;;;;8.32;4.10;;;;;;;24.83;25.86;98094.22;4899369;29;20127;-62
2022/01/24 09:35:52;;;;;;;9.57;4.30;;;;;;;24.88;25.88;98087.09;4903058;29;20039;-63
2022/01/24 09:38:17;;;;;;;11.27;4.13;;;;;;;24.95;26.11;98096.53;4900584;29;20028;-61
2022/01/24 09:40:43;;;;;;;8.20;3.30;;;;;;;25.00;26.16;98102.50;4904578;29;20044;-60
2022/01/24 09:43:08;;;;;;;10.77;3.75;;;;;;;25.03;26.12;98099.78;4886731;29;20032;-62
2022/01/24 09:45:34;;;;;;;5.13;3.20;;;;;;;25.10;26.45;98097.84;4901517;29;20032;-62
2022/01/24 09:48:00;;;;;;;7.57;3.15;;;;;;;25.17;26.32;98101.16;4889448;29;20048;-62
2022/01/24 09:50:25;;;;;;;11.15;3.70;;;;;;;25.21;26.54;98113.28;4916112;29;20035;-61
2022/01/24 09:52:51;;;;;;;15.48;4.20;;;;;;;25.27;26.70;98106.94;4916334;29;20091;-62
2022/01/24 09:55:17;;;;;;;25.88;5.65;;;;;;;25.30;26.78;98097.25;4901124;29;20596;-62
2022/01/24 09:57:46;;;;;;;16.90;5.07;;;;;;;25.35;26.70;98099.72;4914279;29;20031;-61
2022/01/24 10:00:13;;;;;;;17.98;5.15;;;;;;;25.40;26.77;98102.22;4902542;29;20032;-62
2022/01/24 10:02:39;;;;;;;19.38;5.18;;;;;;;25.42;26.94;98105.63;4901455;29;20098;-64
2022/01/24 10:05:14;;;;;;;15.07;4.95;;;;;;;25.45;27.12;98102.91;4903933;29;20039;-63
2022/01/24 10:07:40;;;;;;;19.17;4.50;;;;;;;25.48;27.03;98092.34;4905008;29;20038;-62
2022/01/24 10:10:05;;;;;;;19.15;5.03;;;;;;;25.51;27.05;98089.59;4905185;29;20470;-62
2022/01/24 10:16:24;;;;;;;13.48;4.20;;;;;;;25.53;27.24;98090.44;4898870;29;20078;-62
2022/01/24 10:18:19;;;;;;;12.05;4.57;;;;;;;25.59;27.34;98097.25;4916952;29;20379;-63
2022/01/24 10:20:45;;;;;;;14.25;4.00;;;;;;;25.60;27.29;98092.88;4899279;29;20106;-62
2022/01/24 10:23:26;;;;;;;13.90;4.38;;;;;;;25.63;27.25;98095.41;4905374;29;20150;-63
2022/01/24 10:26:03;;;;;;;14.10;4.45;;;;;;;25.64;27.46;98091.88;4918347;29;20050;-62
2022/01/24 10:28:39;;;;;;;12.88;3.90;;;;;;;25.65;27.50;98083.09;4903614;29;20047;-61
2022/01/24 10:31:10;;;;;;;10.38;4.38;;;;;;;25.67;27.61;98089.16;4891597;29;20100;-63
2022/01/24 10:34:14;;;;;;;11.45;3.88;;;;;;;25.68;27.67;98089.13;4906407;29;20028;-62
2022/01/24 10:36:50;;;;;;;8.75;3.72;;;;;;;25.68;27.70;98081.25;4893616;29;20036;-63
2022/01/24 10:44:55;;;;;;;8.00;3.20;;;;;;;25.72;27.76;98066.22;4906262;29;20937;-62
2022/01/24 10:47:30;;;;;;;9.93;3.85;;;;;;;25.74;27.97;98059.16;4902689;29;20067;-62
2022/01/24 10:49:56;;;;;;;11.15;3.42;;;;;;;25.73;27.97;98054.81;4922836;29;20039;-62
2022/01/24 10:52:23;;;;;;;7.25;3.50;;;;;;;25.74;28.12;98048.66;4922579;29;20031;-62
2022/01/24 10:54:50;;;;;;;7.93;3.47;;;;;;;25.75;28.02;98054.78;4918213;29;20034;-62
2022/01/24 10:57:26;;;;;;;8.18;3.15;;;;;;;25.76;28.05;98056.47;4903608;29;20032;-63
2022/01/24 11:00:03;;;;;;;7.18;3.47;;;;;;;25.77;28.16;98059.06;4907174;29;20024;-60
2022/01/24 11:02:41;;;;;;;7.88;3.45;;;;;;;25.79;28.24;98045.88;4904227;29;20034;-62
2022/01/24 11:05:14;;;;;;;9.32;3.30;;;;;;;25.79;28.30;98046.75;4905610;29;20648;-60
2022/01/24 11:07:57;;;;;;;11.73;3.00;;;;;;;25.80;28.42;98043.22;4901291;29;20068;-61
2022/01/24 11:10:24;;;;;;;15.25;3.35;;;;;;;25.79;28.27;98033.63;4900250;29;20890;-62
2022/01/24 11:12:51;;;;;;;5.30;2.88;;;;;;;25.81;28.30;98042.28;4898083;28;20392;-62
2022/01/24 11:15:17;;;;;;;6.53;3.95;;;;;;;25.81;26.93;98044.06;4918550;28;20030;-62
2022/01/24 11:17:43;;;;;;;6.97;4.13;;;;;;;25.74;26.07;98043.41;4901637;29;20043;-61
2022/01/24 11:20:11;;;;;;;10.68;3.60;;;;;;;25.71;26.09;98035.66;4903648;29;20562;-61
2022/01/24 11:22:42;;;;;;;5.00;2.60;;;;;;;25.69;26.79;98034.81;4917853;29;20031;-61
2022/01/24 11:25:08;;;;;;;4.85;2.50;;;;;;;25.67;27.01;98021.75;4910583;29;20047;-62
2022/01/24 11:27:34;;;;;;;6.88;2.80;;;;;;;25.67;27.24;98026.16;4900400;29;20040;-59
2022/01/24 11:30:02;;;;;;;6.80;2.80;;;;;;;25.69;27.29;98029.56;4886558;29;20059;-63
2022/01/24 11:32:30;;;;;;;4.45;2.42;;;;;;;25.68;27.33;98027.84;4898390;29;20063;-62
2022/01/24 11:34:57;;;;;;;5.30;1.90;;;;;;;25.70;27.54;98036.53;4903061;29;20043;-61
2022/01/24 11:37:36;;;;;;;6.28;2.42;;;;;;;25.70;27.69;98026.91;4899744;29;20904;-61
2022/01/24 11:40:23;;;;;;;4.95;2.40;;;;;;;25.73;27.88;98036.44;4918436;29;20711;-61
2022/01/24 11:42:49;;;;;;;7.00;2.20;;;;;;;25.74;27.84;98035.53;4901968;29;20027;-62
2022/01/24 11:45:18;;;;;;;7.13;2.55;;;;;;;25.75;27.94;98024.13;4902978;29;20982;-62
2022/01/24 11:47:45;;;;;;;5.47;2.17;;;;;;;25.77;27.95;98026.69;4913540;29;20059;-60
2022/01/24 11:50:30;;;;;;;5.30;2.50;;;;;;;25.76;27.86;98025.84;4893672;29;20139;-62
2022/01/24 11:52:56;;;;;;;5.30;2.20;;;;;;;25.77;27.92;98032.81;4901885;29;21010;-61
2022/01/24 11:55:34;;;;;;;5.30;2.20;;;;;;;25.79;27.76;98031.00;4895714;29;20043;-62
2022/01/24 11:58:06;;;;;;;3.78;2.20;;;;;;;25.79;27.96;98028.38;4901520;29;20472;-62
2022/01/24 12:00:38;;;;;;;5.55;2.30;;;;;;;25.79;27.94;98025.75;4917496;29;20036;-60
2022/01/24 12:03:31;;;;;;;5.35;2.47;;;;;;;25.80;28.11;98030.09;4902108;29;20088;-61
2022/01/24 12:06:09;;;;;;;4.10;2.08;;;;;;;25.81;28.03;98034.41;4898620;29;20036;-61
2022/01/24 12:08:41;;;;;;;5.55;2.10;;;;;;;25.82;28.02;98025.63;4900808;29;20422;-60
2022/01/24 12:11:11;;;;;;;4.68;1.95;;;;;;;25.83;28.14;98022.09;4900961;29;20087;-61
2022/01/24 12:13:41;;;;;;;3.92;2.05;;;;;;;25.85;28.05;98023.81;4901784;29;20288;-61
2022/01/24 12:16:09;;;;;;;4.50;2.00;;;;;;;25.85;28.07;98018.56;4899003;29;22578;-61
2022/01/24 12:18:34;;;;;;;5.88;2.00;;;;;;;25.85;28.30;98019.41;4898998;29;20754;-61
2022/01/24 12:21:06;;;;;;;3.45;2.00;;;;;;;25.86;28.32;98017.66;4901211;29;20089;-60
2022/01/24 12:23:38;;;;;;;4.50;1.88;;;;;;;25.88;28.29;98007.94;4905237;29;20170;-60
2022/01/24 12:26:08;;;;;;;8.25;2.10;;;;;;;25.89;28.27;98014.94;4902960;29;20533;-61
2022/01/24 12:28:42;;;;;;;4.22;1.85;;;;;;;25.90;28.26;98008.75;4896878;29;20060;-61
2022/01/24 12:31:25;;;;;;;10.82;2.55;;;;;;;25.90;28.25;98006.13;4900362;29;20036;-61
2022/01/24 12:33:53;;;;;;;25.85;2.95;;;;;;;25.89;28.27;97999.19;4904251;29;20115;-62
2022/01/24 12:36:37;;;;;;;26.48;3.30;;;;;;;25.88;28.29;98002.69;4897958;29;20028;-61
2022/01/24 12:39:45;;;;;;;22.40;2.75;;;;;;;25.88;28.45;98000.06;4901436;29;20032;-61
2022/01/24 12:42:30;;;;;;;7.03;2.22;;;;;;;25.87;28.65;97995.72;4891608;29;20046;-61
2022/01/24 12:47:39;;;;;;;6.35;2.20;;;;;;;25.87;28.77;97995.72;4912767;29;20038;-61
2022/01/24 12:50:07;;;;;;;6.40;1.70;;;;;;;25.88;28.73;97981.69;4898616;29;20032;-58
2022/01/24 12:52:32;;;;;;;11.32;2.03;;;;;;;25.90;28.71;97990.38;4898788;29;20032;-60
2022/01/24 12:55:00;;;;;;;7.07;1.80;;;;;;;25.90;28.76;97982.50;4911486;29;20849;-61
2022/01/24 12:57:30;;;;;;;10.43;1.77;;;;;;;25.91;28.87;97981.59;4906239;29;20031;-60
2022/01/24 13:00:10;;;;;;;8.02;2.05;;;;;;;25.92;28.79;97985.91;4897107;29;20040;-59
2022/01/24 13:02:39;;;;;;;12.50;1.90;;;;;;;25.93;28.79;97985.03;4898197;29;20028;-60
2022/01/24 13:05:07;;;;;;;6.35;2.17;;;;;;;25.92;28.73;97978.03;4893622;29;20060;-61
2022/01/24 13:07:33;;;;;;;14.00;1.75;;;;;;;25.96;28.87;97979.66;4907343;28;20086;-61
2022/01/24 13:10:03;;;;;;;5.25;1.90;;;;;;;25.97;28.78;97976.09;4897675;29;20114;-60
2022/01/24 13:12:29;;;;;;;8.23;1.90;;;;;;;25.98;29.00;97969.97;4896596;29;20443;-60
2022/01/24 13:14:58;;;;;;;4.13;1.80;;;;;;;26.01;28.83;97977.72;4913985;29;20031;-61
2022/01/24 13:23:05;;;;;;;4.05;1.88;;;;;;;26.03;28.94;97970.66;4905083;29;20235;-60
2022/01/24 13:25:36;;;;;;;5.22;1.80;;;;;;;26.03;29.10;97961.91;4903233;29;20038;-61
2022/01/24 13:28:04;;;;;;;2.90;1.40;;;;;;;26.04;28.95;97967.09;4899907;29;20392;-61
2022/01/24 13:30:34;;;;;;;4.57;1.52;;;;;;;26.04;29.07;97961.84;4917178;28;20172;-61
2022/01/24 13:33:05;;;;;;;4.63;1.70;;;;;;;26.05;29.18;97963.56;4897370;29;20039;-62
2022/01/24 13:35:33;;;;;;;4.00;1.63;;;;;;;26.06;29.14;97961.81;4901116;29;20829;-61
2022/01/24 13:38:15;;;;;;;4.10;1.40;;;;;;;26.06;29.24;97956.56;4897412;29;20024;-61